Time;durP1;ratioP1;P1;durP2;ratioP2;P2;SDS_P1;SDS_P2;PMS_P1;PMS_P2;Temp;Humidity;BMP_temperature;BMP_pressure;BME280_temperature;BME280_humidity;BME280_pressure;Samples;Min_cycle;Max_cycle;Signal;HPM_P1;HPM_P2
2022/09/04 00:00:19;;;;;;;0.30;0.30;;;17.80;74.00;;;;;;4980048;28;20373;-96
2022/09/04 00:03:14;;;;;;;0.30;0.30;;;17.80;74.50;;;;;;4984674;28;20043;-96
2022/09/04 00:05:55;;;;;;;0.10;0.10;;;17.70;74.80;;;;;;4986292;28;20078;-96
2022/09/04 00:08:46;;;;;;;0.20;0.20;;;17.80;75.00;;;;;;4995855;28;20046;-96
2022/09/04 00:11:40;;;;;;;0.20;0.20;;;17.60;75.50;;;;;;4995421;28;20060;-96
2022/09/04 00:14:24;;;;;;;0.30;0.30;;;17.60;75.70;;;;;;4979401;28;20137;-96
2022/09/04 00:17:04;;;;;;;1.10;0.10;;;17.60;75.50;;;;;;4995237;28;20137;-96
2022/09/04 00:19:58;;;;;;;0.20;0.20;;;17.50;75.80;;;;;;5014250;28;20074;-96
2022/09/04 00:22:32;;;;;;;0.20;0.20;;;17.50;76.30;;;;;;4966735;28;20086;-96
2022/09/04 00:25:10;;;;;;;0.22;0.20;;;17.50;75.70;;;;;;4979113;28;20050;-96
2022/09/04 00:27:45;;;;;;;0.43;0.20;;;17.40;76.10;;;;;;4992994;28;20042;-96
2022/09/04 00:30:21;;;;;;;0.40;0.15;;;17.40;76.20;;;;;;4982996;28;20430;-96
2022/09/04 00:32:59;;;;;;;0.20;0.20;;;17.40;76.40;;;;;;4995958;28;20117;-96
2022/09/04 00:35:31;;;;;;;0.20;0.20;;;17.40;76.50;;;;;;4994782;28;20046;-95
2022/09/04 00:38:30;;;;;;;0.30;0.22;;;17.30;76.60;;;;;;4995089;28;20054;-96
2022/09/04 00:41:03;;;;;;;0.20;0.20;;;17.30;76.30;;;;;;4976097;28;20047;-96
2022/09/04 00:43:40;;;;;;;0.32;0.32;;;17.30;77.00;;;;;;4982612;28;20069;-96
2022/09/04 00:46:46;;;;;;;0.30;0.30;;;17.20;76.70;;;;;;4995198;28;20485;-96
2022/09/04 00:49:28;;;;;;;0.10;0.10;;;17.10;78.20;;;;;;4945037;28;20062;-95
2022/09/04 00:52:14;;;;;;;0.30;0.30;;;17.10;77.30;;;;;;4976202;28;20097;-96
2022/09/04 00:55:05;;;;;;;0.10;0.10;;;17.00;77.60;;;;;;4977236;28;21343;-95
2022/09/04 00:58:01;;;;;;;0.40;0.40;;;17.00;78.20;;;;;;4977995;28;20062;-96
2022/09/04 01:00:29;;;;;;;0.30;0.30;;;17.00;79.40;;;;;;4977716;28;20481;-96
2022/09/04 01:03:06;;;;;;;0.20;0.20;;;16.90;77.90;;;;;;4994982;28;20057;-96
2022/09/04 01:06:13;;;;;;;0.70;0.25;;;16.90;78.80;;;;;;4993705;28;20505;-95
2022/09/04 01:09:04;;;;;;;0.13;0.13;;;16.80;78.60;;;;;;4983865;28;20062;-96
2022/09/04 01:11:48;;;;;;;0.25;0.25;;;16.70;79.30;;;;;;4993406;28;20141;-96
2022/09/04 01:14:33;;;;;;;0.13;0.13;;;16.70;79.60;;;;;;4979378;28;20050;-95
2022/09/04 01:17:13;;;;;;;0.20;0.20;;;16.60;78.90;;;;;;4994306;28;20378;-96
2022/09/04 01:19:51;;;;;;;0.28;0.28;;;16.60;79.30;;;;;;4978632;28;20073;-96
2022/09/04 01:22:24;;;;;;;0.10;0.10;;;16.60;79.20;;;;;;4977398;28;20085;-95
2022/09/04 01:24:52;;;;;;;0.30;0.30;;;16.60;79.60;;;;;;4995452;28;20054;-96
2022/09/04 01:27:49;;;;;;;0.20;0.20;;;16.60;79.20;;;;;;4977545;28;20058;-95
2022/09/04 01:30:17;;;;;;;0.30;0.30;;;16.60;79.90;;;;;;4975637;28;20051;-96
2022/09/04 01:33:09;;;;;;;0.30;0.30;;;16.50;80.30;;;;;;4977623;28;20581;-94
2022/09/04 01:35:51;;;;;;;0.50;0.38;;;16.50;81.10;;;;;;4994947;28;20485;-96
2022/09/04 01:38:21;;;;;;;0.20;0.20;;;16.50;80.30;;;;;;4994997;28;20046;-96
2022/09/04 01:41:06;;;;;;;0.20;0.20;;;16.50;82.30;;;;;;4978466;28;20089;-96
2022/09/04 01:43:32;;;;;;;0.20;0.20;;;16.40;82.10;;;;;;4993199;28;20042;-94
2022/09/04 01:46:09;;;;;;;1.15;0.30;;;16.40;80.70;;;;;;4993835;28;20050;-95
2022/09/04 01:49:12;;;;;;;0.20;0.20;;;16.40;81.30;;;;;;4977395;28;20489;-96
2022/09/04 01:51:41;;;;;;;0.30;0.30;;;16.40;81.30;;;;;;4993235;28;20049;-91
2022/09/04 01:54:31;;;;;;;0.20;0.20;;;16.30;81.20;;;;;;4975606;28;20489;-95
2022/09/04 01:57:16;;;;;;;0.38;0.38;;;16.30;80.90;;;;;;4993994;28;20050;-95
2022/09/04 02:00:10;;;;;;;0.20;0.20;;;16.30;81.00;;;;;;4980226;28;20080;-95
2022/09/04 02:02:45;;;;;;;0.10;0.10;;;16.30;81.80;;;;;;4975836;28;20432;-92
2022/09/04 02:05:36;;;;;;;0.68;0.50;;;16.30;81.30;;;;;;4985369;28;20055;-95
2022/09/04 02:08:20;;;;;;;0.10;0.10;;;16.30;82.50;;;;;;4976043;28;20050;-95
2022/09/04 02:11:25;;;;;;;0.28;0.28;;;16.20;82.10;;;;;;4977396;28;20141;-94
2022/09/04 02:14:31;;;;;;;0.20;0.20;;;16.30;82.70;;;;;;4991518;28;20093;-95
2022/09/04 02:17:11;;;;;;;0.17;0.17;;;16.20;82.90;;;;;;4992342;28;20081;-96
2022/09/04 02:20:07;;;;;;;0.20;0.20;;;16.10;83.80;;;;;;4993260;28;20050;-96
2022/09/04 02:22:55;;;;;;;0.25;0.25;;;16.10;83.30;;;;;;4993347;28;20058;-87
2022/09/04 02:25:27;;;;;;;;;;;16.10;83.40;;;;;;4980093;28;20055;-96
2022/09/04 02:28:08;;;;;;;0.45;0.30;;;16.10;84.70;;;;;;4990890;28;19925;-94
2022/09/04 02:31:01;;;;;;;0.20;0.20;;;16.10;83.40;;;;;;4984626;28;20134;-87
2022/09/04 02:33:53;;;;;;;0.20;0.20;;;16.10;83.60;;;;;;4958444;28;20050;-95
2022/09/04 02:36:29;;;;;;;0.20;0.20;;;16.10;83.60;;;;;;4977626;28;20050;-95
2022/09/04 02:39:20;;;;;;;0.50;0.33;;;16.00;84.10;;;;;;4993621;28;20890;-95
2022/09/04 02:42:02;;;;;;;0.30;0.13;;;16.00;84.60;;;;;;4976481;28;20476;-96
2022/09/04 02:45:01;;;;;;;0.15;0.10;;;16.00;84.80;;;;;;4994179;28;20077;-95
2022/09/04 02:47:46;;;;;;;0.20;0.10;;;16.00;85.00;;;;;;4953946;28;20050;-94
2022/09/04 02:50:55;;;;;;;0.10;0.10;;;16.00;85.40;;;;;;4993369;28;20142;-95
2022/09/04 02:53:37;;;;;;;;;;;15.90;85.10;;;;;;4977592;28;20082;-94
2022/09/04 02:56:13;;;;;;;0.30;0.30;;;16.00;87.70;;;;;;4991618;28;19926;-95
2022/09/04 02:59:02;;;;;;;0.32;0.30;;;15.90;86.10;;;;;;4992303;28;20121;-86
2022/09/04 03:01:45;;;;;;;0.98;0.50;;;15.90;87.60;;;;;;4979015;28;20093;-95
2022/09/04 03:04:36;;;;;;;0.30;0.30;;;15.80;86.70;;;;;;4993254;28;20413;-95
2022/09/04 03:07:11;;;;;;;0.35;0.35;;;15.80;88.50;;;;;;4990223;28;20137;-93
2022/09/04 03:09:52;;;;;;;0.20;0.20;;;15.80;88.40;;;;;;4993139;28;20046;-95
2022/09/04 03:12:41;;;;;;;0.22;0.20;;;15.80;90.00;;;;;;4993828;28;20042;-96
2022/09/04 03:15:16;;;;;;;0.65;0.65;;;15.70;89.40;;;;;;4993796;28;20046;-96
2022/09/04 03:18:03;;;;;;;0.30;0.30;;;15.70;90.20;;;;;;4991458;28;20043;-88
2022/09/04 03:20:32;;;;;;;0.25;0.25;;;15.60;89.80;;;;;;4977020;28;20050;-95
2022/09/04 03:23:19;;;;;;;0.30;0.30;;;15.60;90.60;;;;;;4990903;28;20046;-96
2022/09/04 03:25:49;;;;;;;1.05;0.40;;;15.50;91.10;;;;;;4992639;28;20064;-95
2022/09/04 03:28:38;;;;;;;0.43;0.40;;;15.40;90.80;;;;;;4981348;28;20035;-95
2022/09/04 03:31:42;;;;;;;0.20;0.20;;;15.30;91.40;;;;;;4967211;28;20474;-96
2022/09/04 03:34:31;;;;;;;0.50;0.50;;;15.30;91.90;;;;;;4916520;29;20062;-96
2022/09/04 03:37:20;;;;;;;0.22;0.22;;;15.20;91.80;;;;;;4933552;29;20150;-95
2022/09/04 03:39:48;;;;;;;0.20;0.20;;;15.10;92.20;;;;;;4955874;28;20149;-95
2022/09/04 03:42:24;;;;;;;0.20;0.20;;;15.10;92.10;;;;;;4992241;28;20050;-95
2022/09/04 03:45:07;;;;;;;0.20;0.20;;;15.00;92.40;;;;;;4976418;28;20065;-95
2022/09/04 03:47:59;;;;;;;0.10;0.10;;;15.00;92.60;;;;;;4993684;28;20069;-95
2022/09/04 03:51:02;;;;;;;0.22;0.22;;;14.90;92.70;;;;;;4973592;28;20058;-95
2022/09/04 03:53:55;;;;;;;0.20;0.20;;;14.90;93.00;;;;;;4992044;28;20038;-95
2022/09/04 03:56:44;;;;;;;0.60;0.40;;;14.80;93.20;;;;;;4978063;28;20051;-95
2022/09/04 03:59:43;;;;;;;0.35;0.35;;;14.70;93.30;;;;;;4984737;28;20038;-94
2022/09/04 04:02:24;;;;;;;0.32;0.32;;;14.70;93.60;;;;;;4939524;28;20133;-94
2022/09/04 04:05:09;;;;;;;0.70;0.40;;;14.60;93.50;;;;;;4990534;28;20125;-94
2022/09/04 04:08:30;;;;;;;0.30;0.30;;;14.60;94.20;;;;;;4996488;28;20086;-95
2022/09/04 04:11:28;;;;;;;0.52;0.40;;;14.50;94.30;;;;;;4920180;29;20135;-95
2022/09/04 04:14:12;;;;;;;0.20;0.20;;;14.40;94.40;;;;;;4967206;28;20057;-94
2022/09/04 04:17:07;;;;;;;0.50;0.50;;;14.30;94.60;;;;;;4996336;28;20042;-96
2022/09/04 04:19:43;;;;;;;0.30;0.30;;;14.30;94.90;;;;;;4994388;28;20050;-94
2022/09/04 04:22:43;;;;;;;0.25;0.20;;;14.20;94.90;;;;;;4986398;28;20679;-95
2022/09/04 04:25:33;;;;;;;0.20;0.20;;;14.10;95.10;;;;;;4994953;28;20057;-94
2022/09/04 04:28:16;;;;;;;0.35;0.30;;;14.10;95.20;;;;;;5020089;28;20443;-95
2022/09/04 04:30:53;;;;;;;0.28;0.28;;;14.00;95.50;;;;;;5004551;28;20050;-95
2022/09/04 04:33:42;;;;;;;0.13;0.13;;;14.00;95.70;;;;;;4999059;28;20046;-95
2022/09/04 04:36:31;;;;;;;0.55;0.25;;;13.90;95.90;;;;;;4997570;28;20038;-94
2022/09/04 04:39:02;;;;;;;0.13;0.13;;;13.90;96.40;;;;;;4982374;28;20053;-95
2022/09/04 04:42:04;;;;;;;1.67;0.40;;;13.90;96.30;;;;;;4989857;28;20049;-94
2022/09/04 04:47:35;;;;;;;0.35;0.32;;;13.80;97.00;;;;;;4979145;28;20149;-95
2022/09/04 04:50:29;;;;;;;0.47;0.30;;;13.80;97.00;;;;;;4978919;28;20069;-94
2022/09/04 04:53:17;;;;;;;0.30;0.30;;;13.70;97.30;;;;;;4979979;28;20065;-90
2022/09/04 04:56:13;;;;;;;0.30;0.30;;;13.70;97.60;;;;;;4994349;28;20049;-94
2022/09/04 04:58:46;;;;;;;0.40;0.40;;;13.70;97.70;;;;;;5011301;28;20092;-94
2022/09/04 05:01:41;;;;;;;0.20;0.20;;;13.60;97.80;;;;;;4996640;28;20049;-94
2022/09/04 05:04:28;;;;;;;0.30;0.30;;;13.70;98.20;;;;;;5012891;28;20054;-94
2022/09/04 05:07:00;;;;;;;0.35;0.35;;;13.70;97.90;;;;;;4982736;28;20054;-87
2022/09/04 05:09:50;;;;;;;0.30;0.30;;;13.60;98.00;;;;;;4962708;28;20089;-94
2022/09/04 05:12:53;;;;;;;0.20;0.15;;;13.60;98.40;;;;;;4987906;28;20042;-94
2022/09/04 05:15:35;;;;;;;0.30;0.30;;;13.60;98.80;;;;;;4986950;28;20049;-93
2022/09/04 05:18:10;;;;;;;0.22;0.22;;;13.60;99.00;;;;;;4962011;28;20073;-94
2022/09/04 05:20:46;;;;;;;0.75;0.30;;;13.60;99.20;;;;;;4978583;28;20129;-94
2022/09/04 05:23:32;;;;;;;0.40;0.40;;;13.60;99.30;;;;;;4973447;28;20553;-94
2022/09/04 05:26:16;;;;;;;0.40;0.40;;;13.60;99.90;;;;;;4974004;28;20050;-86
2022/09/04 05:28:55;;;;;;;0.52;0.43;;;13.60;99.90;;;;;;4969102;28;20051;-93
2022/09/04 05:31:38;;;;;;;0.30;0.30;;;13.70;99.90;;;;;;4955560;28;20054;-94
2022/09/04 05:34:26;;;;;;;0.38;0.35;;;13.70;99.90;;;;;;4973765;28;20039;-95
2022/09/04 05:37:19;;;;;;;0.43;0.43;;;13.90;99.90;;;;;;4973775;28;20055;-95
2022/09/04 05:40:14;;;;;;;0.30;0.30;;;13.90;99.90;;;;;;4975122;28;20057;-95
2022/09/04 05:42:58;;;;;;;0.30;0.30;;;14.00;99.90;;;;;;4937388;28;20050;-95
2022/09/04 05:45:33;;;;;;;0.50;0.50;;;14.10;99.90;;;;;;4973950;28;20098;-94
2022/09/04 05:48:30;;;;;;;0.30;0.30;;;14.20;99.60;;;;;;4975460;28;20043;-95
2022/09/04 05:51:24;;;;;;;0.52;0.35;;;14.40;99.80;;;;;;4919166;29;20113;-94
2022/09/04 05:54:33;;;;;;;0.20;0.20;;;14.60;99.90;;;;;;4966328;28;20054;-94
2022/09/04 05:57:18;;;;;;;0.22;0.22;;;14.70;99.90;;;;;;4973761;28;20392;-94
2022/09/04 06:00:05;;;;;;;0.40;0.40;;;14.80;99.20;;;;;;4964258;28;20043;-94
2022/09/04 06:02:55;;;;;;;0.40;0.38;;;14.90;98.80;;;;;;4965511;28;20097;-94
2022/09/04 06:05:43;;;;;;;0.35;0.30;;;15.10;98.40;;;;;;4965026;28;20251;-94
2022/09/04 06:08:28;;;;;;;0.13;0.13;;;15.30;98.10;;;;;;4957133;28;20050;-94
2022/09/04 06:11:18;;;;;;;0.55;0.30;;;15.40;97.40;;;;;;4957573;28;20050;-94
2022/09/04 06:14:00;;;;;;;0.47;0.47;;;15.60;97.80;;;;;;4973270;28;20500;-94
2022/09/04 06:16:33;;;;;;;0.32;0.32;;;15.80;97.20;;;;;;4971743;28;20118;-94
2022/09/04 06:19:14;;;;;;;0.25;0.25;;;15.80;96.60;;;;;;4950415;29;20054;-95
2022/09/04 06:21:43;;;;;;;1.10;0.40;;;16.00;96.50;;;;;;4975790;28;20464;-94
2022/09/04 06:24:24;;;;;;;0.20;0.17;;;16.10;96.50;;;;;;4991904;28;20127;-93
2022/09/04 06:27:23;;;;;;;0.20;0.20;;;16.20;96.20;;;;;;4992334;28;20531;-94
2022/09/04 06:30:05;;;;;;;0.40;0.40;;;16.30;96.10;;;;;;4976300;28;20050;-91
2022/09/04 06:33:08;;;;;;;0.20;0.20;;;16.50;96.00;;;;;;4991967;28;20129;-95
2022/09/04 06:35:40;;;;;;;0.20;0.20;;;16.50;95.60;;;;;;4976557;28;20100;-94
2022/09/04 06:38:23;;;;;;;0.35;0.30;;;16.60;95.30;;;;;;4992288;28;20540;-85
2022/09/04 06:40:58;;;;;;;0.63;0.35;;;16.70;95.10;;;;;;4993670;28;20054;-95
2022/09/04 06:43:39;;;;;;;0.38;0.38;;;16.70;95.00;;;;;;4973615;28;20035;-94
2022/09/04 06:46:27;;;;;;;0.13;0.13;;;16.80;95.20;;;;;;4989325;28;20093;-94
2022/09/04 06:48:52;;;;;;;;;;;17.00;95.00;;;;;;4989310;28;20050;-94
2022/09/04 06:51:33;;;;;;;0.25;0.25;;;17.10;95.00;;;;;;4992220;28;20438;-95
2022/09/04 06:54:20;;;;;;;0.20;0.13;;;17.20;94.70;;;;;;4992949;28;20053;-94
2022/09/04 06:57:04;;;;;;;0.50;0.30;;;17.40;94.10;;;;;;4975944;28;20140;-90
2022/09/04 06:59:41;;;;;;;0.30;0.30;;;17.50;94.20;;;;;;4976732;28;20081;-96
2022/09/04 07:02:07;;;;;;;0.45;0.30;;;17.70;93.60;;;;;;4991583;28;20125;-95
2022/09/04 07:04:47;;;;;;;0.20;0.20;;;17.90;92.90;;;;;;4972603;28;20176;-95
2022/09/04 07:07:31;;;;;;;0.45;0.45;;;18.00;92.70;;;;;;4982486;28;20054;-96
2022/09/04 07:10:19;;;;;;;0.38;0.30;;;18.10;92.60;;;;;;4992256;28;20042;-94
2022/09/04 07:13:08;;;;;;;0.45;0.40;;;18.20;92.00;;;;;;4986100;28;20126;-95
2022/09/04 07:15:55;;;;;;;0.65;0.30;;;18.20;92.20;;;;;;4967765;28;20050;-89
2022/09/04 07:18:47;;;;;;;0.25;0.25;;;18.30;92.20;;;;;;4977168;28;20035;-92
2022/09/04 07:21:28;;;;;;;0.22;0.22;;;18.40;92.20;;;;;;4946617;28;20050;-88
2022/09/04 07:24:25;;;;;;;0.43;0.43;;;18.50;91.90;;;;;;4994175;28;20050;-93
2022/09/04 07:27:14;;;;;;;0.38;0.38;;;18.50;91.80;;;;;;4975914;28;20047;-90
2022/09/04 07:30:05;;;;;;;0.20;0.20;;;18.50;92.00;;;;;;4996923;28;20061;-92
2022/09/04 07:32:52;;;;;;;0.20;0.20;;;18.60;92.00;;;;;;4990887;28;20053;-94
2022/09/04 07:35:49;;;;;;;0.38;0.38;;;18.70;92.10;;;;;;4975753;28;20372;-93
2022/09/04 07:38:33;;;;;;;0.38;0.30;;;18.80;91.50;;;;;;4976416;28;20049;-90
2022/09/04 07:41:13;;;;;;;0.57;0.40;;;18.80;91.50;;;;;;4977940;28;20448;-94
2022/09/04 07:44:04;;;;;;;0.50;0.20;;;18.80;91.60;;;;;;4998829;28;20045;-94
2022/09/04 07:47:11;;;;;;;0.22;0.22;;;18.90;92.10;;;;;;5004319;28;20408;-87
2022/09/04 07:50:00;;;;;;;0.30;0.30;;;19.00;91.60;;;;;;4977867;28;20134;-90
2022/09/04 07:52:44;;;;;;;0.10;0.10;;;19.00;91.90;;;;;;4980749;28;20166;-91
2022/09/04 07:55:46;;;;;;;0.30;0.30;;;19.10;92.10;;;;;;4991070;28;20511;-96
2022/09/04 07:58:31;;;;;;;0.30;0.30;;;19.30;91.90;;;;;;4971215;28;20509;-96
2022/09/04 08:00:56;;;;;;;0.22;0.20;;;19.50;92.10;;;;;;4979824;28;20101;-96
2022/09/04 08:03:34;;;;;;;0.20;0.20;;;19.60;91.20;;;;;;4988746;28;20501;-95
2022/09/04 08:06:15;;;;;;;0.60;0.40;;;19.80;91.00;;;;;;4961428;28;20054;-96
2022/09/04 08:09:10;;;;;;;0.38;0.30;;;19.90;90.90;;;;;;4985901;28;20049;-95
2022/09/04 08:11:57;;;;;;;1.25;0.50;;;20.10;91.10;;;;;;4996722;23;20484;-94
2022/09/04 08:14:52;;;;;;;0.30;0.30;;;20.30;90.80;;;;;;4991918;28;20065;-93
2022/09/04 08:17:54;;;;;;;0.77;0.50;;;20.40;90.30;;;;;;4961724;28;20051;-96
2022/09/04 08:20:20;;;;;;;0.10;0.10;;;20.50;90.40;;;;;;4943394;28;20401;-87
2022/09/04 08:22:49;;;;;;;0.20;0.20;;;20.50;90.40;;;;;;4950315;28;20094;-89
2022/09/04 08:25:40;;;;;;;0.20;0.20;;;20.60;90.40;;;;;;4993899;28;20082;-87
2022/09/04 08:28:16;;;;;;;0.28;0.25;;;20.60;90.00;;;;;;4971466;28;20500;-90
2022/09/04 08:30:53;;;;;;;0.30;0.30;;;20.60;90.20;;;;;;4971206;28;20117;-87
2022/09/04 08:33:38;;;;;;;0.20;0.20;;;20.60;90.20;;;;;;4992439;28;20042;-88
2022/09/04 08:36:12;;;;;;;0.10;0.10;;;20.70;90.30;;;;;;4974997;28;20317;-86
2022/09/04 08:39:03;;;;;;;0.10;0.10;;;20.80;90.30;;;;;;4994702;28;20078;-88
2022/09/04 08:41:57;;;;;;;0.28;0.28;;;20.90;90.00;;;;;;4995755;28;20138;-86
2022/09/04 08:45:02;;;;;;;0.40;0.40;;;21.00;89.40;;;;;;4984730;28;20106;-87
2022/09/04 08:47:52;;;;;;;0.20;0.20;;;21.10;90.10;;;;;;4963291;28;20054;-88
2022/09/04 08:50:43;;;;;;;0.10;0.10;;;21.30;89.30;;;;;;4960359;28;20060;-89
2022/09/04 08:53:36;;;;;;;0.20;0.20;;;21.40;88.60;;;;;;4985023;28;20042;-88
2022/09/04 08:56:20;;;;;;;0.30;0.30;;;21.50;88.60;;;;;;4978906;28;20054;-87
2022/09/04 08:59:20;;;;;;;0.40;0.40;;;21.50;88.00;;;;;;4961191;28;20050;-88
2022/09/04 09:01:46;;;;;;;0.38;0.38;;;21.50;87.60;;;;;;4976177;28;20052;-88
2022/09/04 09:04:49;;;;;;;0.43;0.43;;;21.60;87.90;;;;;;4978229;28;20466;-86
2022/09/04 09:07:27;;;;;;;0.10;0.10;;;21.70;86.50;;;;;;4977847;28;21841;-88
2022/09/04 09:10:17;;;;;;;0.13;0.13;;;21.80;87.20;;;;;;4977449;28;20039;-88
2022/09/04 09:13:28;;;;;;;0.30;0.30;;;21.80;87.40;;;;;;4960997;28;20058;-89
2022/09/04 09:16:05;;;;;;;0.30;0.30;;;22.20;86.50;;;;;;4977206;28;20050;-87
2022/09/04 09:18:37;;;;;;;0.30;0.20;;;22.00;86.40;;;;;;4977297;28;20050;-90
2022/09/04 09:21:23;;;;;;;0.30;0.30;;;22.00;86.20;;;;;;4984707;28;20131;-91
2022/09/04 09:24:17;;;;;;;0.22;0.22;;;22.10;85.90;;;;;;4977282;28;20050;-88
2022/09/04 09:27:03;;;;;;;0.10;0.10;;;22.20;87.10;;;;;;4976357;28;20579;-87
2022/09/04 09:29:49;;;;;;;0.30;0.30;;;22.30;85.90;;;;;;4994841;28;20046;-92
2022/09/04 09:33:04;;;;;;;0.40;0.33;;;22.40;85.70;;;;;;4982235;28;20136;-86
2022/09/04 09:36:14;;;;;;;0.10;0.10;;;22.50;84.90;;;;;;4991665;28;20297;-87
2022/09/04 09:39:17;;;;;;;0.20;0.20;;;22.60;84.50;;;;;;4986894;28;20117;-87
2022/09/04 09:41:58;;;;;;;0.20;0.20;;;22.60;84.20;;;;;;4973677;28;20049;-87
2022/09/04 09:44:53;;;;;;;0.28;0.28;;;22.60;84.50;;;;;;4961211;28;20077;-88
2022/09/04 09:47:37;;;;;;;0.20;0.20;;;22.60;83.50;;;;;;4967503;28;20050;-90
2022/09/04 09:50:21;;;;;;;0.22;0.22;;;22.70;83.40;;;;;;4967358;28;20046;-86
2022/09/04 09:52:59;;;;;;;0.20;0.20;;;22.70;84.00;;;;;;4962458;28;20400;-86
2022/09/04 09:55:48;;;;;;;0.32;0.32;;;22.70;84.10;;;;;;4961312;28;20047;-87
2022/09/04 09:58:37;;;;;;;0.10;0.10;;;22.90;83.30;;;;;;4959447;28;20046;-87
2022/09/04 10:01:18;;;;;;;0.52;0.25;;;23.00;83.90;;;;;;4977122;28;20054;-88
2022/09/04 10:04:08;;;;;;;0.28;0.28;;;23.10;82.80;;;;;;4973535;28;20497;-87
2022/09/04 10:07:03;;;;;;;0.10;0.10;;;23.20;82.50;;;;;;4975057;28;20065;-85
2022/09/04 10:09:38;;;;;;;0.10;0.10;;;23.30;81.70;;;;;;4965369;28;20168;-92
2022/09/04 10:12:15;;;;;;;0.25;0.25;;;23.40;82.50;;;;;;4990452;28;20054;-89
2022/09/04 10:15:03;;;;;;;0.30;0.30;;;23.50;82.30;;;;;;4976006;28;20054;-87
2022/09/04 10:18:06;;;;;;;0.28;0.28;;;23.60;82.10;;;;;;4976352;28;20073;-87
2022/09/04 10:21:09;;;;;;;0.30;0.30;;;23.80;81.70;;;;;;4973386;28;20057;-86
2022/09/04 10:24:06;;;;;;;0.30;0.30;;;23.90;81.20;;;;;;4950125;28;20049;-86
2022/09/04 10:26:50;;;;;;;0.10;0.10;;;24.10;79.80;;;;;;4975518;28;20047;-90
2022/09/04 10:29:49;;;;;;;0.20;0.20;;;24.20;80.40;;;;;;4975047;28;20496;-87
2022/09/04 10:32:31;;;;;;;0.28;0.28;;;24.30;79.50;;;;;;4970682;28;20077;-88
2022/09/04 10:35:08;;;;;;;0.47;0.47;;;24.30;79.30;;;;;;4975205;28;20093;-90
2022/09/04 10:37:42;;;;;;;0.13;0.13;;;24.30;79.20;;;;;;4980985;28;20042;-93
2022/09/04 10:40:34;;;;;;;0.45;0.45;;;24.30;79.50;;;;;;4965957;28;20066;-87
2022/09/04 10:43:21;;;;;;;0.10;0.10;;;24.30;79.90;;;;;;4964837;28;20047;-88
2022/09/04 10:45:52;;;;;;;0.30;0.30;;;24.40;79.10;;;;;;4976305;28;20050;-89
2022/09/04 10:49:00;;;;;;;0.10;0.10;;;24.60;78.80;;;;;;4959829;28;20137;-92
2022/09/04 10:52:17;;;;;;;0.20;0.20;;;24.70;78.10;;;;;;4937040;28;20050;-87
2022/09/04 10:54:58;;;;;;;0.25;0.20;;;24.80;77.30;;;;;;4944744;28;20500;-87
2022/09/04 10:57:33;;;;;;;0.20;0.20;;;24.90;77.60;;;;;;4975108;28;20092;-87
2022/09/04 11:00:06;;;;;;;0.30;0.30;;;25.00;77.70;;;;;;4976303;28;20659;-87
2022/09/04 11:02:50;;;;;;;0.40;0.40;;;24.90;77.80;;;;;;4992506;28;20504;-89
2022/09/04 11:05:19;;;;;;;0.28;0.28;;;24.90;78.00;;;;;;4968130;28;20050;-88
2022/09/04 11:08:21;;;;;;;0.17;0.17;;;24.80;77.40;;;;;;4975360;28;20456;-88
2022/09/04 11:10:47;;;;;;;0.22;0.20;;;24.80;77.80;;;;;;4957059;28;20093;-89
2022/09/04 11:13:22;;;;;;;0.60;0.35;;;25.00;78.00;;;;;;4988358;28;20137;-89
2022/09/04 11:16:00;;;;;;;0.30;0.30;;;25.10;76.50;;;;;;4993013;28;20057;-89
2022/09/04 11:18:50;;;;;;;0.10;0.10;;;25.20;77.50;;;;;;4959184;28;20034;-90
2022/09/04 11:21:48;;;;;;;0.10;0.10;;;25.30;77.30;;;;;;4982522;28;20388;-87
2022/09/04 11:24:27;;;;;;;0.22;0.22;;;25.50;76.20;;;;;;4962996;28;20481;-89
2022/09/04 11:27:08;;;;;;;0.20;0.13;;;25.60;76.80;;;;;;4973400;28;20535;-88
2022/09/04 11:29:46;;;;;;;0.30;0.30;;;25.50;75.80;;;;;;4972933;28;20073;-87
2022/09/04 11:32:30;;;;;;;0.20;0.20;;;25.60;76.20;;;;;;4963923;28;20455;-88
2022/09/04 11:35:21;;;;;;;0.15;0.15;;;25.70;76.00;;;;;;4984662;28;20102;-85
2022/09/04 11:37:56;;;;;;;0.20;0.20;;;25.70;75.10;;;;;;4976172;28;20385;-87
2022/09/04 11:40:49;;;;;;;0.30;0.20;;;25.80;75.90;;;;;;4974333;28;20038;-87
2022/09/04 11:44:00;;;;;;;1.10;0.30;;;25.80;75.50;;;;;;4976054;28;20042;-86
2022/09/04 11:47:10;;;;;;;0.20;0.20;;;25.90;75.50;;;;;;4957285;28;20559;-86
2022/09/04 11:49:54;;;;;;;0.28;0.20;;;26.10;75.20;;;;;;4961512;28;20062;-86
2022/09/04 11:52:42;;;;;;;0.22;0.22;;;26.30;75.10;;;;;;4969224;28;20059;-85
2022/09/04 11:55:29;;;;;;;0.20;0.20;;;26.30;74.60;;;;;;4979037;28;20129;-91
2022/09/04 11:58:15;;;;;;;;;;;26.40;74.80;;;;;;4956822;28;20055;-86
2022/09/04 12:01:02;;;;;;;0.28;0.28;;;26.50;73.90;;;;;;4991986;28;19922;-87
2022/09/04 12:03:53;;;;;;;0.10;0.10;;;26.60;75.00;;;;;;4950540;28;20501;-87
2022/09/04 12:06:37;;;;;;;0.10;0.10;;;26.90;73.10;;;;;;4962864;28;20050;-86
2022/09/04 12:09:21;;;;;;;0.38;0.38;;;27.00;75.00;;;;;;4972463;28;20038;-90
2022/09/04 12:12:24;;;;;;;0.20;0.20;;;27.00;73.00;;;;;;4972815;28;20054;-86
2022/09/04 12:14:56;;;;;;;0.20;0.20;;;27.10;73.50;;;;;;4967217;28;20062;-89
2022/09/04 12:17:55;;;;;;;0.10;0.10;;;27.10;74.60;;;;;;4970788;28;20042;-86
2022/09/04 12:20:46;;;;;;;0.10;0.10;;;27.20;74.70;;;;;;4976700;28;20099;-87
2022/09/04 12:23:40;;;;;;;0.45;0.30;;;27.30;74.80;;;;;;4958289;28;20039;-86
2022/09/04 12:26:11;;;;;;;0.10;0.10;;;27.40;73.10;;;;;;4977161;28;20050;-86
2022/09/04 12:29:08;;;;;;;0.55;0.55;;;27.40;74.20;;;;;;4974644;28;20038;-85
2022/09/04 12:31:51;;;;;;;0.10;0.10;;;27.40;73.00;;;;;;4993969;28;20448;-86
2022/09/04 12:34:37;;;;;;;0.10;0.10;;;27.40;72.30;;;;;;4974008;28;20038;-86
2022/09/04 12:37:28;;;;;;;0.30;0.30;;;27.50;73.90;;;;;;4952115;28;20124;-85
2022/09/04 12:40:12;;;;;;;0.10;0.10;;;27.60;73.00;;;;;;4976647;28;20090;-87
2022/09/04 12:43:03;;;;;;;0.32;0.20;;;27.50;73.30;;;;;;4989527;28;20366;-85
2022/09/04 12:45:29;;;;;;;0.52;0.40;;;27.70;72.40;;;;;;4961192;28;20121;-86
2022/09/04 12:48:20;;;;;;;0.00;0.00;;;27.80;73.40;;;;;;4958978;28;20639;-87
2022/09/04 12:51:00;;;;;;;0.22;0.20;;;27.90;72.50;;;;;;4994324;28;20099;-85
2022/09/04 12:53:52;;;;;;;0.10;0.10;;;28.00;72.30;;;;;;4974700;28;20034;-86
2022/09/04 12:56:49;;;;;;;0.17;0.17;;;28.10;72.30;;;;;;4976686;28;20069;-85
2022/09/04 12:59:33;;;;;;;0.20;0.20;;;28.20;71.60;;;;;;4963357;28;20428;-84
2022/09/04 13:02:19;;;;;;;0.30;0.30;;;28.30;70.80;;;;;;4974390;28;20046;-85
2022/09/04 13:05:03;;;;;;;0.20;0.20;;;28.20;70.60;;;;;;4976199;28;20382;-86
2022/09/04 13:07:54;;;;;;;0.10;0.10;;;28.20;72.20;;;;;;4976334;28;20133;-85
2022/09/04 13:10:32;;;;;;;0.22;0.22;;;28.20;70.80;;;;;;4992049;28;20104;-81
2022/09/04 13:13:36;;;;;;;0.20;0.20;;;28.10;71.00;;;;;;4975341;28;20473;-84
2022/09/04 13:16:14;;;;;;;0.10;0.10;;;28.20;70.30;;;;;;4974523;28;20053;-83
2022/09/04 13:19:00;;;;;;;0.15;0.15;;;28.30;71.80;;;;;;4974796;28;20481;-83
2022/09/04 13:21:34;;;;;;;0.20;0.20;;;28.40;70.90;;;;;;4993033;28;20045;-85
2022/09/04 13:24:18;;;;;;;0.22;0.22;;;28.40;71.80;;;;;;4975718;28;20508;-86
2022/09/04 13:27:14;;;;;;;0.13;0.13;;;28.60;71.60;;;;;;4945888;28;20042;-84
2022/09/04 13:29:57;;;;;;;0.30;0.25;;;28.60;69.90;;;;;;4977448;28;20109;-84
2022/09/04 13:32:46;;;;;;;0.15;0.10;;;28.70;71.40;;;;;;4991306;28;20042;-84
2022/09/04 13:35:19;;;;;;;0.15;0.15;;;28.80;70.20;;;;;;4974144;28;20045;-83
2022/09/04 13:38:11;;;;;;;0.10;0.10;;;28.90;70.50;;;;;;4975022;28;20058;-82
2022/09/04 13:41:22;;;;;;;0.40;0.17;;;29.00;69.50;;;;;;4971575;28;20057;-83
2022/09/04 13:43:59;;;;;;;0.20;0.10;;;29.10;69.10;;;;;;4993354;28;20069;-83
2022/09/04 13:46:31;;;;;;;0.13;0.13;;;29.20;69.30;;;;;;4975330;28;20401;-85
2022/09/04 13:49:13;;;;;;;0.13;0.13;;;29.20;69.90;;;;;;4991690;28;20174;-85
2022/09/04 13:52:01;;;;;;;0.20;0.20;;;29.10;69.40;;;;;;4971638;28;20050;-88
2022/09/04 13:54:35;;;;;;;0.52;0.28;;;29.10;68.80;;;;;;4971287;28;20038;-83
2022/09/04 13:57:29;;;;;;;0.20;0.10;;;29.00;69.50;;;;;;4972636;28;20076;-84
2022/09/04 14:00:01;;;;;;;0.20;0.20;;;28.90;68.90;;;;;;4986556;28;20070;-83
2022/09/04 14:02:30;;;;;;;0.20;0.20;;;28.90;70.30;;;;;;4974552;28;20062;-87
2022/09/04 14:05:04;;;;;;;0.20;0.20;;;28.90;70.30;;;;;;4926623;28;20090;-85
2022/09/04 14:07:35;;;;;;;0.25;0.25;;;28.90;69.80;;;;;;4974775;28;20050;-87
2022/09/04 14:10:14;;;;;;;0.13;0.13;;;28.90;70.70;;;;;;4976312;28;20381;-85
2022/09/04 14:12:51;;;;;;;0.30;0.30;;;28.90;70.60;;;;;;4990307;28;20050;-85
2022/09/04 14:15:18;;;;;;;0.15;0.15;;;29.00;70.50;;;;;;4991116;28;20130;-85
2022/09/04 14:17:55;;;;;;;0.20;0.20;;;28.90;70.80;;;;;;4989509;28;20049;-84
2022/09/04 14:20:27;;;;;;;0.25;0.20;;;28.90;70.40;;;;;;4989896;28;20435;-86
2022/09/04 14:23:27;;;;;;;0.20;0.20;;;28.90;70.40;;;;;;4974088;28;20053;-84
2022/09/04 14:26:03;;;;;;;1.65;0.40;;;28.90;68.80;;;;;;4988667;28;20050;-87